Time;durP1;ratioP1;P1;durP2;ratioP2;P2;SDS_P1;SDS_P2;PMS_P1;PMS_P2;Temp;Humidity;BMP_temperature;BMP_pressure;BME280_temperature;BME280_humidity;BME280_pressure;Samples;Min_cycle;Max_cycle;Signal;HPM_P1;HPM_P2
2022/01/06 00:00:10;;;;;;;;;31.75;30.25;;;;;2.65;71.92;101676.31;5000516;28;45515;-78
2022/01/06 00:02:36;;;;;;;;;38.00;32.25;;;;;2.61;72.14;101657.72;4992932;28;45289;-78
2022/01/06 00:05:03;;;;;;;;;35.25;31.00;;;;;2.65;71.86;101667.56;5000333;28;45405;-78
2022/01/06 00:07:29;;;;;;;;;29.75;27.25;;;;;2.51;71.96;101648.34;4994101;28;45464;-78
2022/01/06 00:09:55;;;;;;;;;36.50;33.50;;;;;2.44;72.24;101646.13;5015414;28;47415;-78
2022/01/06 00:12:26;;;;;;;;;40.50;29.00;;;;;2.41;72.29;101649.41;4994038;28;45390;-78
2022/01/06 00:17:35;;;;;;;;;52.00;44.75;;;;;2.53;73.10;101674.56;4994471;28;45298;-78
2022/01/06 00:25:28;;;;;;;;;56.50;44.25;;;;;2.44;72.90;101670.50;4995287;28;45348;-78
2022/01/06 00:27:54;;;;;;;;;51.25;39.75;;;;;2.45;72.61;101676.63;4994887;28;45514;-78
2022/01/06 00:30:19;;;;;;;;;66.00;53.00;;;;;2.39;72.94;101660.53;5001849;28;45321;-78
2022/01/06 00:32:44;;;;;;;;;63.00;50.67;;;;;2.28;73.84;101649.31;4994954;28;45273;-78
2022/01/06 00:35:10;;;;;;;;;53.50;43.75;;;;;2.27;72.82;101650.13;5000154;28;45235;-78
2022/01/06 00:37:35;;;;;;;;;52.00;43.50;;;;;2.26;73.05;101647.41;4994758;28;45346;-78
2022/01/06 00:40:00;;;;;;;;;49.50;42.25;;;;;2.37;72.78;101670.84;5001301;28;46654;-77
2022/01/06 00:42:26;;;;;;;;;39.25;34.25;;;;;2.39;72.93;101682.31;4993474;28;45330;-78
2022/01/06 00:44:52;;;;;;;;;41.75;32.75;;;;;2.23;72.36;101650.69;5002084;28;45299;-78
2022/01/06 00:47:20;;;;;;;;;36.50;32.50;;;;;2.37;72.86;101689.09;4997088;28;45358;-78
2022/01/06 00:49:46;;;;;;;;;38.00;34.00;;;;;2.26;73.01;101674.38;4997740;28;45670;-78
2022/01/06 00:52:11;;;;;;;;;46.75;41.25;;;;;2.31;72.77;101690.38;4998072;28;45408;-78
2022/01/06 00:54:37;;;;;;;;;42.50;38.25;;;;;2.34;72.72;101685.38;4998680;28;45555;-78
2022/01/06 00:57:02;;;;;;;;;37.00;34.75;;;;;2.36;73.78;101695.13;4996955;28;45300;-78
2022/01/06 00:59:28;;;;;;;;;37.00;34.00;;;;;2.21;73.47;101668.88;4999151;28;46382;-78
2022/01/06 01:01:53;;;;;;;;;42.50;35.00;;;;;2.25;73.57;101677.81;4998246;28;45471;-78
2022/01/06 01:04:19;;;;;;;;;36.50;32.00;;;;;2.27;73.37;101680.50;5000140;28;45306;-78
2022/01/06 01:06:44;;;;;;;;;42.00;33.00;;;;;2.00;73.47;101636.91;4998852;28;45511;-78
2022/01/06 01:09:09;;;;;;;;;37.25;34.75;;;;;2.23;73.70;101680.28;4992898;28;46569;-78
2022/01/06 01:11:35;;;;;;;;;40.75;35.00;;;;;2.13;73.44;101663.88;5014211;28;46344;-78
2022/01/06 01:14:16;;;;;;;;;45.75;40.00;;;;;2.13;73.57;101667.41;4994731;28;45206;-78
2022/01/06 01:16:50;;;;;;;;;45.75;34.75;;;;;2.21;73.67;101684.50;4997842;28;46578;-78
2022/01/06 01:19:15;;;;;;;;;46.50;33.25;;;;;2.19;74.00;101677.38;4995872;28;46465;-77
2022/01/06 01:21:40;;;;;;;;;39.50;36.50;;;;;2.27;73.14;101697.09;4996253;28;45407;-78
2022/01/06 01:24:06;;;;;;;;;37.00;31.75;;;;;2.07;72.96;101669.53;4999942;28;45350;-77
2022/01/06 01:26:32;;;;;;;;;37.75;31.75;;;;;2.13;73.18;101680.44;4996409;28;45492;-77
2022/01/06 01:28:57;;;;;;;;;38.00;34.25;;;;;2.06;73.35;101672.97;4994214;28;46868;-77
2022/01/06 01:31:25;;;;;;;;;39.75;35.50;;;;;2.10;73.28;101688.06;4997344;28;45284;-77
2022/01/06 01:33:56;;;;;;;;;37.25;34.00;;;;;2.07;73.66;101689.50;4997786;28;45248;-77
2022/01/06 01:36:21;;;;;;;;;33.50;30.25;;;;;2.05;73.89;101686.81;4997401;28;45448;-77
2022/01/06 01:38:47;;;;;;;;;39.00;34.00;;;;;1.98;73.17;101671.50;4993588;28;47127;-77
2022/01/06 01:41:12;;;;;;;;;38.75;32.50;;;;;2.01;73.40;101689.97;4999212;28;45325;-76
2022/01/06 01:43:38;;;;;;;;;42.00;35.00;;;;;2.08;73.79;101701.78;4992748;28;45313;-77
2022/01/06 01:46:11;;;;;;;;;33.25;31.50;;;;;2.01;74.42;101697.78;4997734;28;45288;-77
2022/01/06 01:48:41;;;;;;;;;39.50;38.00;;;;;2.00;73.71;101699.50;5025503;28;47269;-77
2022/01/06 01:51:08;;;;;;;;;45.00;35.75;;;;;1.85;73.75;101677.53;4998558;28;45448;-76
2022/01/06 01:53:34;;;;;;;;;38.50;32.25;;;;;1.86;74.21;101676.72;5010980;28;45343;-77
2022/01/06 01:56:00;;;;;;;;;43.00;34.25;;;;;1.96;73.35;101694.88;4998417;28;45372;-76
2022/01/06 01:58:25;;;;;;;;;35.75;30.25;;;;;1.96;74.05;101706.97;4997660;28;46680;-76
2022/01/06 02:00:51;;;;;;;;;34.75;29.50;;;;;1.92;73.75;101710.16;4999399;28;45461;-77
2022/01/06 02:03:16;;;;;;;;;31.25;27.25;;;;;1.87;73.90;101707.19;5022106;28;45282;-77
2022/01/06 02:05:41;;;;;;;;;38.50;30.50;;;;;1.87;73.76;101709.81;4997978;28;46991;-77
2022/01/06 02:08:07;;;;;;;;;40.75;32.50;;;;;1.83;73.92;101702.56;4988986;28;46187;-77
2022/01/06 02:10:33;;;;;;;;;35.00;33.00;;;;;1.92;74.35;101716.28;4999318;28;45274;-77
2022/01/06 02:13:01;;;;;;;;;31.50;31.50;;;;;1.73;74.15;101685.34;4993856;28;45456;-77
2022/01/06 02:15:27;;;;;;;;;36.25;32.50;;;;;1.77;75.06;101710.84;5000373;28;45175;-77
2022/01/06 02:17:53;;;;;;;;;35.00;33.75;;;;;1.90;73.73;101736.09;5005672;28;47881;-76
2022/01/06 02:20:20;;;;;;;;;35.50;31.25;;;;;1.82;73.76;101724.22;4999904;28;45319;-76
2022/01/06 02:22:46;;;;;;;;;63.67;51.33;;;;;1.87;74.11;101737.59;4992532;28;45345;-78
2022/01/06 02:25:12;;;;;;;;;63.00;48.67;;;;;1.88;73.65;101734.19;4999798;28;45694;-78
2022/01/06 02:27:37;;;;;;;;;70.00;54.00;;;;;1.71;73.87;101712.06;4991615;28;47226;-78
2022/01/06 02:30:04;;;;;;;;;78.33;62.00;;;;;1.85;73.98;101736.56;4999749;28;45352;-78
2022/01/06 02:32:29;;;;;;;;;79.00;61.67;;;;;1.55;74.54;101676.16;4990743;28;45449;-78
2022/01/06 02:34:55;;;;;;;;;64.67;54.33;;;;;1.79;74.48;101723.97;4999668;28;45238;-78
2022/01/06 02:37:20;;;;;;;;;65.67;52.67;;;;;1.71;74.55;101707.78;4992203;28;45450;-78
2022/01/06 02:39:46;;;;;;;;;61.67;49.00;;;;;1.79;74.73;101727.50;4999859;28;45232;-78
2022/01/06 02:42:11;;;;;;;;;46.75;41.50;;;;;1.73;74.98;101721.81;4993702;28;45234;-78
2022/01/06 02:44:38;;;;;;;;;52.33;43.33;;;;;1.67;74.32;101704.84;4995336;28;45237;-78
2022/01/06 02:47:08;;;;;;;;;42.25;37.50;;;;;1.77;74.15;101725.59;4994236;28;45301;-78
2022/01/06 02:49:34;;;;;;;;;38.00;34.75;;;;;1.73;73.87;101723.53;4998120;28;45810;-77
2022/01/06 02:52:00;;;;;;;;;39.75;32.25;;;;;1.72;74.51;101722.63;4995652;28;45293;-78
2022/01/06 02:54:26;;;;;;;;;35.75;32.50;;;;;1.60;73.96;101700.88;4997437;28;45496;-78
2022/01/06 02:56:52;;;;;;;;;39.25;30.50;;;;;1.69;74.20;101717.19;4996503;28;45578;-78
2022/01/06 02:59:19;;;;;;;;;36.75;32.50;;;;;1.56;74.58;101698.81;4997512;28;45299;-78
2022/01/06 03:01:44;;;;;;;;;31.25;27.00;;;;;1.69;73.86;101735.44;4997263;28;45380;-77
2022/01/06 03:04:11;;;;;;;;;41.50;27.00;;;;;1.71;74.20;101740.72;4990846;28;45513;-77
2022/01/06 03:06:38;;;;;;;;;36.25;29.00;;;;;1.76;75.34;101750.75;4997083;28;46223;-77
2022/01/06 03:09:04;;;;;;;;;27.75;26.75;;;;;1.87;74.46;101761.03;4992104;28;45394;-77
2022/01/06 03:11:32;;;;;;;;;38.25;30.75;;;;;1.81;75.06;101744.97;4995523;28;45282;-77
2022/01/06 03:13:58;;;;;;;;;31.25;27.00;;;;;1.78;75.15;101736.09;4997117;28;45462;-77
2022/01/06 03:16:23;;;;;;;;;37.50;32.50;;;;;1.96;74.56;101764.31;4995756;28;45202;-77
2022/01/06 03:18:49;;;;;;;;;33.75;32.00;;;;;2.03;74.67;101768.31;4993849;28;45333;-77
2022/01/06 03:21:14;;;;;;;;;37.25;32.50;;;;;1.74;74.23;101699.28;4997176;28;45226;-77
2022/01/06 03:23:40;;;;;;;;;33.50;30.00;;;;;2.08;74.29;101760.03;5009957;28;46289;-77
2022/01/06 03:26:06;;;;;;;;;38.00;28.25;;;;;2.16;75.12;101758.91;4996811;28;45505;-77
2022/01/06 03:28:32;;;;;;;;;33.75;28.25;;;;;2.09;74.65;101751.41;4993326;28;45289;-77
2022/01/06 03:30:57;;;;;;;;;30.50;24.75;;;;;2.11;74.42;101748.94;4997336;28;45400;-77
2022/01/06 03:33:23;;;;;;;;;30.00;28.50;;;;;2.20;75.34;101760.03;4997661;28;45955;-77
2022/01/06 03:35:49;;;;;;;;;33.00;29.50;;;;;2.14;74.07;101747.44;4996227;28;47228;-77
2022/01/06 03:38:14;;;;;;;;;32.50;25.50;;;;;2.20;74.23;101765.25;5008501;28;44812;-77
2022/01/06 03:40:40;;;;;;;;;35.75;25.75;;;;;2.08;74.01;101748.72;4999063;28;45246;-77
2022/01/06 03:43:06;;;;;;;;;24.25;23.50;;;;;2.11;74.25;101749.84;4991413;28;45310;-77
2022/01/06 03:45:33;;;;;;;;;29.75;25.75;;;;;2.12;74.73;101758.56;4995663;28;47103;-77
2022/01/06 03:47:58;;;;;;;;;26.50;26.00;;;;;2.01;74.23;101736.91;4993579;28;45502;-77
2022/01/06 03:50:24;;;;;;;;;24.00;21.00;;;;;2.00;73.54;101749.03;5012305;28;45308;-77
2022/01/06 03:52:49;;;;;;;;;26.50;23.50;;;;;2.17;74.44;101772.84;4994142;28;46112;-76
2022/01/06 03:55:18;;;;;;;;;27.00;20.75;;;;;2.12;74.26;101763.78;4988764;28;45509;-77
2022/01/06 03:57:45;;;;;;;;;26.00;22.25;;;;;2.06;75.36;101759.00;4988921;28;45488;-77
2022/01/06 04:00:13;;;;;;;;;27.25;20.25;;;;;2.05;74.67;101759.81;5000998;28;45377;-78
2022/01/06 04:02:40;;;;;;;;;28.50;23.75;;;;;2.12;74.61;101767.28;4990065;28;45497;-76
2022/01/06 04:05:06;;;;;;;;;24.00;22.00;;;;;2.12;75.17;101767.28;4996353;28;47424;-77
2022/01/06 04:07:35;;;;;;;;;29.25;28.25;;;;;2.12;75.61;101767.28;4992406;28;45379;-76
2022/01/06 04:10:01;;;;;;;;;19.00;18.25;;;;;1.99;74.07;101739.41;5000263;28;45245;-76
2022/01/06 04:12:26;;;;;;;;;27.50;19.50;;;;;2.06;73.87;101750.28;4991161;28;46409;-76
2022/01/06 04:14:51;;;;;;;;;21.00;20.00;;;;;2.17;74.06;101768.53;5000585;28;47478;-77
2022/01/06 04:17:17;;;;;;;;;22.00;17.00;;;;;2.28;74.34;101781.47;4995355;28;45159;-76
2022/01/06 04:19:42;;;;;;;;;23.50;20.50;;;;;2.20;74.23;101766.16;5001807;28;45224;-77
2022/01/06 04:22:08;;;;;;;;;24.25;17.50;;;;;2.10;73.71;101739.28;4992859;28;45606;-77
2022/01/06 04:24:34;;;;;;;;;18.75;17.00;;;;;2.14;73.95;101755.28;4998112;28;48502;-77
2022/01/06 04:27:00;;;;;;;;;25.00;21.25;;;;;2.31;74.37;101785.19;4993826;28;45822;-77
2022/01/06 04:29:25;;;;;;;;;30.25;20.00;;;;;2.23;74.71;101755.94;4996580;28;45393;-77
2022/01/06 04:31:50;;;;;;;;;24.00;20.75;;;;;2.28;74.15;101773.63;4994550;28;45362;-77
2022/01/06 04:34:16;;;;;;;;;26.75;20.50;;;;;2.03;73.52;101724.00;5000703;28;45443;-77
2022/01/06 04:36:47;;;;;;;;;17.00;17.00;;;;;2.27;74.61;101774.41;4994076;28;45444;-76
2022/01/06 04:39:13;;;;;;;;;26.25;17.25;;;;;2.08;73.89;101751.31;5001100;28;45368;-77
2022/01/06 04:41:38;;;;;;;;;23.50;20.25;;;;;2.00;74.33;101742.91;4996363;28;45278;-77
2022/01/06 04:44:04;;;;;;;;;24.75;21.00;;;;;1.99;74.00;101744.63;4999623;28;48344;-76
2022/01/06 04:46:29;;;;;;;;;22.50;18.25;;;;;2.16;74.48;101773.66;4997488;28;45275;-77
2022/01/06 04:48:54;;;;;;;;;17.25;17.25;;;;;2.00;73.94;101754.25;5029250;28;45850;-77
2022/01/06 04:51:20;;;;;;;;;23.75;17.50;;;;;2.04;74.41;101759.69;4997525;28;46386;-77
2022/01/06 04:53:45;;;;;;;;;23.25;19.00;;;;;2.10;73.63;101771.50;5013870;28;48307;-77
2022/01/06 04:56:11;;;;;;;;;23.00;17.25;;;;;2.01;74.17;101761.28;4998067;28;45368;-77
2022/01/06 04:58:36;;;;;;;;;20.75;20.75;;;;;1.93;74.66;101757.22;4999472;28;45286;-77
2022/01/06 05:01:02;;;;;;;;;21.75;17.50;;;;;1.97;74.32;101766.16;4997137;28;46218;-77
2022/01/06 05:03:27;;;;;;;;;22.75;18.50;;;;;1.91;74.40;101761.41;4991250;28;45459;-77
2022/01/06 05:05:52;;;;;;;;;20.00;19.25;;;;;1.97;74.81;101777.50;4999477;28;45405;-77
2022/01/06 05:08:18;;;;;;;;;16.00;16.00;;;;;1.91;75.32;101777.03;4994533;28;45356;-77
2022/01/06 05:10:43;;;;;;;;;25.50;20.25;;;;;1.95;74.82;101778.16;5015729;28;46122;-77
2022/01/06 05:13:09;;;;;;;;;20.75;16.00;;;;;1.82;74.67;101765.00;4991734;28;45306;-77
2022/01/06 05:15:34;;;;;;;;;28.25;23.25;;;;;1.85;75.85;101771.38;5000331;28;45315;-77
2022/01/06 05:17:59;;;;;;;;;34.25;20.25;;;;;2.05;74.89;101800.63;4998105;28;45372;-77
2022/01/06 05:20:26;;;;;;;;;23.50;17.00;;;;;1.94;75.22;101785.09;4999774;28;45412;-76
2022/01/06 05:22:55;;;;;;;;;24.00;21.75;;;;;1.84;74.98;101768.63;4994370;28;45418;-77
2022/01/06 05:25:26;;;;;;;;;28.25;21.75;;;;;2.06;74.86;101800.72;4992235;28;45378;-77
2022/01/06 05:27:53;;;;;;;;;25.50;19.50;;;;;2.03;74.88;101790.06;4992384;28;45339;-77
2022/01/06 05:30:19;;;;;;;;;25.00;23.75;;;;;2.12;75.05;101808.09;4998612;28;46109;-77
2022/01/06 05:32:45;;;;;;;;;24.25;20.00;;;;;2.19;74.28;101813.00;4991694;28;47161;-77
2022/01/06 05:35:10;;;;;;;;;17.25;16.75;;;;;2.10;75.40;101791.44;4997988;28;45467;-77
2022/01/06 05:37:36;;;;;;;;;18.50;18.25;;;;;2.14;74.54;101803.91;4991731;28;45457;-75
2022/01/06 05:40:02;;;;;;;;;22.50;18.50;;;;;2.02;75.26;101785.66;4999756;28;45392;-76
2022/01/06 05:42:27;;;;;;;;;21.50;19.00;;;;;2.16;74.69;101815.38;4990203;28;47358;-76
2022/01/06 05:44:53;;;;;;;;;52.25;35.50;;;;;2.10;74.33;101815.84;4992904;28;45400;-76
2022/01/06 05:47:18;;;;;;;;;30.25;30.00;;;;;2.09;74.37;101808.78;4994830;28;45450;-77
2022/01/06 05:49:44;;;;;;;;;37.00;24.75;;;;;1.98;73.98;101796.66;4997422;28;45495;-78
2022/01/06 05:52:09;;;;;;;;;24.75;20.50;;;;;1.98;74.10;101815.78;4997351;28;46235;-77
2022/01/06 05:54:34;;;;;;;;;19.75;19.75;;;;;1.98;74.28;101812.28;5013118;28;45348;-77
2022/01/06 05:57:00;;;;;;;;;21.75;19.75;;;;;1.61;74.15;101752.19;4997505;28;45492;-77
2022/01/06 05:59:28;;;;;;;;;20.25;20.25;;;;;1.89;74.16;101807.28;4999661;28;45272;-76
2022/01/06 06:01:54;;;;;;;;;36.00;19.50;;;;;1.81;74.43;101797.09;4997133;28;46122;-76
2022/01/06 06:04:19;;;;;;;;;24.00;19.25;;;;;1.78;74.50;101801.28;4992373;28;45255;-76
2022/01/06 06:06:44;;;;;;;;;20.00;19.50;;;;;1.76;74.60;101808.09;4997307;28;45499;-76
2022/01/06 06:09:10;;;;;;;;;31.25;24.25;;;;;1.85;74.43;101843.44;4993026;28;45452;-76
2022/01/06 06:11:35;;;;;;;;;19.75;19.50;;;;;1.87;74.44;101847.06;4995405;28;48111;-76
2022/01/06 06:14:00;;;;;;;;;24.25;21.00;;;;;1.73;75.19;101833.88;4997518;28;45372;-76
2022/01/06 06:16:26;;;;;;;;;23.50;18.50;;;;;1.75;74.83;101847.94;4995201;28;45772;-76
2022/01/06 06:18:51;;;;;;;;;32.25;21.50;;;;;1.59;74.71;101815.41;5009268;28;45797;-76
2022/01/06 06:21:16;;;;;;;;;21.25;19.50;;;;;1.82;74.94;101856.22;4997757;28;45484;-76
2022/01/06 06:23:42;;;;;;;;;28.00;23.50;;;;;1.74;74.37;101846.16;5010581;28;45276;-76
2022/01/06 06:26:07;;;;;;;;;23.50;19.50;;;;;1.71;74.80;101839.78;4996369;28;44901;-75
2022/01/06 06:28:33;;;;;;;;;23.00;22.75;;;;;1.82;74.36;101864.06;4994582;28;45381;-75
2022/01/06 06:30:59;;;;;;;;;28.25;23.25;;;;;1.69;75.73;101846.59;4997953;28;45586;-76
2022/01/06 06:33:24;;;;;;;;;25.75;20.00;;;;;1.76;75.00;101862.81;4993861;28;45408;-76
2022/01/06 06:35:50;;;;;;;;;25.50;19.75;;;;;1.78;74.63;101862.91;4997636;28;45381;-78
2022/01/06 06:38:15;;;;;;;;;23.50;17.25;;;;;1.85;75.52;101878.25;4992975;28;45290;-78
2022/01/06 06:40:40;;;;;;;;;27.00;21.25;;;;;1.75;75.07;101847.06;4999446;28;45397;-76
2022/01/06 06:43:11;;;;;;;;;22.25;21.50;;;;;1.74;74.76;101846.16;4992804;28;45305;-77
2022/01/06 06:45:37;;;;;;;;;29.50;22.75;;;;;1.94;75.62;101870.22;4997991;28;45578;-77
2022/01/06 06:48:02;;;;;;;;;29.75;21.50;;;;;1.88;75.14;101856.72;4994193;28;45447;-77
2022/01/06 06:50:28;;;;;;;;;29.00;20.25;;;;;1.89;75.20;101859.44;4998342;28;45408;-77
2022/01/06 06:52:53;;;;;;;;;22.75;18.00;;;;;2.02;74.95;101874.31;4996269;28;45457;-77
2022/01/06 06:55:18;;;;;;;;;23.00;22.25;;;;;1.98;75.16;101867.94;4998268;28;45371;-78
2022/01/06 06:57:44;;;;;;;;;29.25;24.50;;;;;1.99;75.50;101874.09;4990240;28;45555;-78
2022/01/06 07:00:10;;;;;;;;;27.50;24.50;;;;;1.83;75.58;101845.94;4979827;28;46969;-77
2022/01/06 07:02:36;;;;;;;;;26.25;23.25;;;;;1.98;74.44;101872.25;4991055;28;45358;-76
2022/01/06 07:05:01;;;;;;;;;24.00;23.00;;;;;2.10;74.86;101886.25;4997555;28;45169;-77
2022/01/06 07:07:27;;;;;;;;;39.00;23.75;;;;;2.13;74.69;101886.47;4988424;28;46032;-76
2022/01/06 07:09:52;;;;;;;;;24.50;19.25;;;;;1.86;74.79;101835.75;4997490;28;45387;-76
2022/01/06 07:12:18;;;;;;;;;30.50;21.25;;;;;2.05;74.76;101853.69;4992834;28;45447;-75
2022/01/06 07:14:43;;;;;;;;;25.75;23.75;;;;;2.08;74.75;101866.06;4997386;28;45202;-77
2022/01/06 07:17:09;;;;;;;;;23.00;20.00;;;;;2.26;74.28;101893.50;4991698;28;45490;-77
2022/01/06 07:19:34;;;;;;;;;24.25;22.75;;;;;2.28;75.08;101888.41;4999266;28;45319;-76
2022/01/06 07:22:00;;;;;;;;;29.25;27.25;;;;;2.32;74.83;101890.44;4993310;28;45313;-77
2022/01/06 07:24:25;;;;;;;;;32.00;29.00;;;;;2.29;74.34;101883.28;4997784;28;45624;-77
2022/01/06 07:26:51;;;;;;;;;32.25;28.25;;;;;2.17;74.73;101848.47;4991824;28;47107;-77
2022/01/06 07:29:16;;;;;;;;;31.50;26.25;;;;;2.41;74.99;101880.72;4998670;28;45729;-77
2022/01/06 07:31:42;;;;;;;;;34.00;27.25;;;;;2.37;74.29;101883.88;4993943;28;45368;-77
2022/01/06 07:34:07;;;;;;;;;27.25;24.25;;;;;2.00;74.47;101805.50;4997627;28;45342;-76
2022/01/06 07:36:32;;;;;;;;;42.75;35.75;;;;;2.26;74.41;101851.75;4994798;28;46327;-77
2022/01/06 07:38:58;;;;;;;;;39.75;34.00;;;;;2.48;74.81;101880.38;4998475;28;45326;-77
2022/01/06 07:41:23;;;;;;;;;40.25;32.00;;;;;2.58;74.83;101897.63;4995352;28;45439;-78
2022/01/06 07:43:48;;;;;;;;;36.50;24.00;;;;;2.59;74.36;101891.59;4992539;28;45317;-77
2022/01/06 07:46:14;;;;;;;;;33.50;28.00;;;;;2.43;74.33;101874.78;4998693;28;47043;-77
2022/01/06 07:48:56;;;;;;;;;32.50;28.50;;;;;2.42;74.49;101873.00;5001102;28;46924;-76
2022/01/06 07:51:27;;;;;;;;;36.75;28.25;;;;;2.60;74.43;101896.00;4998040;28;44790;-77
2022/01/06 07:53:52;;;;;;;;;30.75;25.75;;;;;2.55;74.43;101889.53;4999639;28;45388;-77
2022/01/06 07:56:18;;;;;;;;;28.25;22.50;;;;;2.70;74.25;101908.97;4998301;28;45578;-77
2022/01/06 07:58:44;;;;;;;;;31.75;27.00;;;;;2.52;74.08;101874.59;4999468;28;45273;-76
2022/01/06 08:01:10;;;;;;;;;25.75;21.25;;;;;2.64;74.44;101888.53;4998599;28;45433;-77
2022/01/06 08:03:36;;;;;;;;;25.50;25.00;;;;;2.76;74.47;101903.28;4994155;28;45376;-76
2022/01/06 08:06:02;;;;;;;;;25.75;20.50;;;;;2.66;74.29;101876.50;5000081;28;45314;-76
2022/01/06 08:08:27;;;;;;;;;25.25;24.50;;;;;2.81;73.91;101899.31;4994364;28;45388;-76
2022/01/06 08:10:52;;;;;;;;;28.00;24.75;;;;;2.60;73.64;101865.59;5001426;28;45403;-74
2022/01/06 08:13:18;;;;;;;;;25.50;23.50;;;;;2.83;73.77;101909.06;4995384;28;45345;-76
2022/01/06 08:15:43;;;;;;;;;26.00;25.25;;;;;2.62;74.53;101868.34;5000613;28;45649;-75
2022/01/06 08:18:09;;;;;;;;;32.25;26.25;;;;;2.77;73.93;101894.66;4994358;28;47981;-75
2022/01/06 08:20:35;;;;;;;;;27.25;24.50;;;;;2.68;74.03;101877.50;5002136;28;45345;-75
2022/01/06 08:23:01;;;;;;;;;25.75;23.75;;;;;2.91;73.36;101920.06;4999658;28;45479;-75
2022/01/06 08:25:27;;;;;;;;;24.50;21.75;;;;;2.77;73.61;101886.81;5001881;28;45297;-76
2022/01/06 08:27:52;;;;;;;;;25.00;21.00;;;;;2.83;73.50;101898.63;4994864;28;46258;-76
2022/01/06 08:30:18;;;;;;;;;34.00;24.50;;;;;2.92;73.46;101917.56;5001443;28;45270;-76
2022/01/06 08:32:43;;;;;;;;;30.25;27.25;;;;;2.99;73.94;101918.91;4994915;28;45489;-75
2022/01/06 08:35:08;;;;;;;;;31.75;26.25;;;;;2.94;73.61;101907.25;5001357;28;45435;-76
2022/01/06 08:37:34;;;;;;;;;30.00;27.25;;;;;2.90;73.61;101893.03;4994968;28;45407;-76
2022/01/06 08:40:00;;;;;;;;;36.75;30.00;;;;;3.11;73.71;101927.66;5001426;28;45424;-75
2022/01/06 08:42:26;;;;;;;;;32.50;25.00;;;;;3.03;73.63;101913.13;4991449;28;45637;-75
2022/01/06 08:44:51;;;;;;;;;36.75;23.25;;;;;3.02;73.71;101897.34;4997193;28;45330;-75
2022/01/06 08:47:16;;;;;;;;;30.50;26.75;;;;;2.97;73.12;101878.75;4997648;28;46383;-75
2022/01/06 08:49:42;;;;;;;;;25.75;24.50;;;;;3.06;73.51;101889.84;5000455;28;45324;-75
2022/01/06 08:52:08;;;;;;;;;36.75;28.25;;;;;3.27;73.34;101920.91;4998070;28;45630;-75
2022/01/06 08:54:34;;;;;;;;;24.75;22.50;;;;;3.30;72.88;101921.13;5000112;28;45513;-76
2022/01/06 08:57:00;;;;;;;;;29.75;29.00;;;;;3.37;73.19;101920.78;4997602;28;45495;-76
2022/01/06 08:59:26;;;;;;;;;35.25;28.00;;;;;3.21;73.39;101886.50;5001099;28;45253;-76
2022/01/06 09:01:51;;;;;;;;;26.75;24.25;;;;;3.37;72.94;101912.94;4998931;28;45413;-76
2022/01/06 09:04:20;;;;;;;;;33.25;26.75;;;;;3.39;72.81;101899.97;5008384;28;46575;-75
2022/01/06 09:06:50;;;;;;;;;33.00;29.25;;;;;3.54;73.41;101925.50;4998824;28;45347;-76
2022/01/06 09:09:17;;;;;;;;;34.25;29.50;;;;;3.52;73.48;101916.63;4999617;28;45405;-75
2022/01/06 09:11:42;;;;;;;;;37.50;31.25;;;;;3.42;73.96;101887.09;4996248;28;45486;-75
2022/01/06 09:14:08;;;;;;;;;36.75;29.75;;;;;3.68;72.96;101918.63;4999709;28;45307;-76
2022/01/06 09:16:33;;;;;;;;;32.00;27.00;;;;;3.83;72.82;101933.56;4997890;28;48079;-76
2022/01/06 09:18:59;;;;;;;;;33.00;32.25;;;;;3.74;72.83;101916.44;4998438;28;45277;-76
2022/01/06 09:21:24;;;;;;;;;37.50;33.50;;;;;3.82;72.30;101922.19;4997703;28;45542;-76
2022/01/06 09:23:51;;;;;;;;;36.25;29.75;;;;;3.98;73.09;101940.78;4996855;28;45474;-76
2022/01/06 09:26:18;;;;;;;;;40.75;30.00;;;;;3.98;72.25;101932.94;4998618;28;46341;-76
2022/01/06 09:28:43;;;;;;;;;36.00;30.75;;;;;4.03;72.15;101928.91;4996342;28;45383;-76
2022/01/06 09:31:09;;;;;;;;;41.50;31.50;;;;;4.13;72.59;101948.75;5013762;28;45348;-76
2022/01/06 09:33:34;;;;;;;;;33.50;31.00;;;;;4.12;72.86;101932.97;4996380;28;45341;-75
2022/01/06 09:36:00;;;;;;;;;38.75;37.25;;;;;4.11;72.14;101932.03;5014179;28;47853;-76
2022/01/06 09:38:25;;;;;;;;;35.00;34.00;;;;;4.24;72.52;101953.03;4991685;28;45420;-75
2022/01/06 09:40:50;;;;;;;;;52.25;42.50;;;;;4.21;72.35;101936.22;5000055;28;45337;-76
2022/01/06 09:43:23;;;;;;;;;55.00;43.50;;;;;4.13;72.02;101913.84;4991221;28;46076;-75
2022/01/06 09:45:49;;;;;;;;;34.50;30.50;;;;;4.17;72.04;101918.47;4987850;28;45678;-75
2022/01/06 09:48:15;;;;;;;;;35.00;31.50;;;;;4.38;71.94;101953.06;4994325;28;45394;-76
2022/01/06 09:50:43;;;;;;;;;37.75;31.75;;;;;4.45;72.17;101958.81;5000771;28;45333;-76
2022/01/06 09:53:13;;;;;;;;;36.75;32.25;;;;;4.41;72.02;101948.94;4994259;28;46129;-76
2022/01/06 09:55:40;;;;;;;;;40.50;36.75;;;;;4.37;71.77;101933.84;4993039;28;45445;-75
2022/01/06 09:58:06;;;;;;;;;44.50;36.75;;;;;4.44;70.98;101941.28;4986827;28;45538;-76
2022/01/06 10:00:34;;;;;;;;;36.25;31.00;;;;;4.49;71.69;101946.84;5000452;28;45356;-75
2022/01/06 10:03:03;;;;;;;;;32.00;27.75;;;;;4.69;71.12;101982.22;4990348;28;45533;-76
2022/01/06 10:05:49;;;;;;;;;31.75;27.50;;;;;4.65;71.52;101964.47;4998996;28;47083;-76
2022/01/06 10:08:27;;;;;;;;;36.00;30.25;;;;;4.63;71.20;101959.13;4993229;28;45447;-76
2022/01/06 10:11:07;;;;;;;;;33.00;28.75;;;;;4.75;71.04;101969.50;5000057;28;45295;-76
2022/01/06 10:13:32;;;;;;;;;37.00;29.25;;;;;4.83;71.12;101975.28;4993432;28;45636;-76
2022/01/06 10:15:58;;;;;;;;;34.00;27.25;;;;;4.67;69.91;101936.66;4998449;28;47166;-75
2022/01/06 10:18:23;;;;;;;;;33.75;28.00;;;;;4.89;70.92;101971.31;5009543;28;45398;-76
2022/01/06 10:20:52;;;;;;;;;32.50;30.25;;;;;4.85;70.28;101957.94;5000180;28;45356;-76
2022/01/06 10:23:18;;;;;;;;;26.50;25.25;;;;;4.90;70.07;101961.75;4998274;28;46165;-76
2022/01/06 10:25:49;;;;;;;;;36.00;29.75;;;;;5.02;69.84;101972.16;4998546;28;48180;-76
2022/01/06 10:28:16;;;;;;;;;28.50;25.50;;;;;5.08;71.13;101969.94;4993306;28;45455;-76
2022/01/06 10:30:47;;;;;;;;;36.50;31.75;;;;;5.02;69.06;101964.28;4998466;28;45188;-76
2022/01/06 10:33:17;;;;;;;;;23.75;21.00;;;;;4.82;69.80;101919.34;4992150;28;46087;-75
2022/01/06 10:35:43;;;;;;;;;30.25;24.00;;;;;5.08;68.72;101964.69;4999384;28;46297;-76
2022/01/06 10:38:08;;;;;;;;;26.25;20.00;;;;;5.06;70.11;101961.06;4996627;28;45791;-76
2022/01/06 10:40:34;;;;;;;;;27.25;22.75;;;;;4.86;69.39;101916.13;4998571;28;45254;-75
2022/01/06 10:43:05;;;;;;;;;24.00;21.50;;;;;5.12;70.54;101957.09;4995193;28;45634;-75
2022/01/06 10:45:31;;;;;;;;;22.00;18.75;;;;;5.19;69.10;101950.56;4997054;28;47553;-75
2022/01/06 10:47:59;;;;;;;;;25.00;20.50;;;;;5.33;69.24;101954.06;4995534;28;45349;-76
2022/01/06 10:50:36;;;;;;;;;24.00;22.00;;;;;5.22;69.14;101932.41;4996611;28;45183;-74
2022/01/06 10:53:06;;;;;;;;;19.00;16.75;;;;;5.45;68.77;101953.94;4996321;28;45610;-75
2022/01/06 10:55:37;;;;;;;;;24.50;21.50;;;;;5.28;67.94;101914.44;4999244;28;45565;-74
2022/01/06 10:58:07;;;;;;;;;19.75;18.00;;;;;5.57;68.58;101949.47;4988554;28;47711;-74
2022/01/06 11:00:37;;;;;;;;;20.00;17.50;;;;;5.66;69.45;101944.81;4994682;28;45283;-73
2022/01/06 11:03:17;;;;;;;;;28.00;23.25;;;;;5.64;67.94;101921.91;4988566;28;45587;-75
2022/01/06 11:05:45;;;;;;;;;22.50;17.25;;;;;5.45;69.53;101873.56;4998830;28;46213;-73
2022/01/06 11:08:13;;;;;;;;;20.75;18.50;;;;;5.82;68.54;101930.91;4989638;28;45317;-75
2022/01/06 11:10:46;;;;;;;;;23.00;18.25;;;;;5.77;66.93;101904.41;4999328;28;45369;-75
2022/01/06 11:13:12;;;;;;;;;19.25;18.00;;;;;5.90;66.32;101913.03;4992456;28;46940;-74
2022/01/06 11:15:38;;;;;;;;;21.00;19.50;;;;;6.02;67.46;101926.91;4998286;28;48123;-78
2022/01/06 11:18:05;;;;;;;;;20.00;17.50;;;;;6.05;65.86;101928.03;4990009;28;45404;-77
2022/01/06 11:20:31;;;;;;;;;22.50;17.00;;;;;6.08;64.23;101923.75;4998180;28;45292;-75